sensor_id;sensor_type;location;lat;lon;timestamp;pressure;altitude;pressure_sealevel;temperature;humidity
6216;BME280;3141;49.234;9.326;2023-02-19T00:00:42;100193.41;;;12.64;82.00
6216;BME280;3141;49.234;9.326;2023-02-19T00:01:30;100193.56;;;12.62;82.15
6216;BME280;3141;49.234;9.326;2023-02-19T00:02:12;100189.84;;;12.73;81.78
6216;BME280;3141;49.234;9.326;2023-02-19T00:02:54;100195.53;;;12.86;80.96
6216;BME280;3141;49.234;9.326;2023-02-19T00:03:38;100193.41;;;12.64;81.44
6216;BME280;3141;49.234;9.326;2023-02-19T00:04:21;100198.47;;;12.75;81.56
6216;BME280;3141;49.234;9.326;2023-02-19T00:05:04;100192.06;;;12.60;81.73
6216;BME280;3141;49.234;9.326;2023-02-19T00:05:47;100193.38;;;12.56;81.82
6216;BME280;3141;49.234;9.326;2023-02-19T00:06:31;100201.69;;;12.61;81.70
6216;BME280;3141;49.234;9.326;2023-02-19T00:07:13;100196.63;;;12.50;82.15
6216;BME280;3141;49.234;9.326;2023-02-19T00:07:56;100196.28;;;12.70;81.28
6216;BME280;3141;49.234;9.326;2023-02-19T00:08:39;100202.78;;;12.76;80.46
6216;BME280;3141;49.234;9.326;2023-02-19T00:09:22;100203.19;;;12.63;81.28
6216;BME280;3141;49.234;9.326;2023-02-19T00:10:04;100197.69;;;12.57;81.43
6216;BME280;3141;49.234;9.326;2023-02-19T00:10:47;100195.22;;;12.63;81.17
6216;BME280;3141;49.234;9.326;2023-02-19T00:11:31;100198.34;;;12.59;81.16
6216;BME280;3141;49.234;9.326;2023-02-19T00:12:13;100197.00;;;12.55;81.47
6216;BME280;3141;49.234;9.326;2023-02-19T00:12:56;100190.56;;;12.57;81.65
6216;BME280;3141;49.234;9.326;2023-02-19T00:13:40;100196.91;;;12.39;82.06
6216;BME280;3141;49.234;9.326;2023-02-19T00:14:23;100192.00;;;12.52;82.04
6216;BME280;3141;49.234;9.326;2023-02-19T00:15:06;100192.56;;;12.38;82.27
6216;BME280;3141;49.234;9.326;2023-02-19T00:15:48;100206.66;;;12.38;82.30
6216;BME280;3141;49.234;9.326;2023-02-19T00:16:36;100193.25;;;12.40;82.24
6216;BME280;3141;49.234;9.326;2023-02-19T00:17:19;100194.19;;;12.56;81.83
6216;BME280;3141;49.234;9.326;2023-02-19T00:18:01;100198.34;;;12.59;81.34
6216;BME280;3141;49.234;9.326;2023-02-19T00:18:44;100198.31;;;12.51;81.54
6216;BME280;3141;49.234;9.326;2023-02-19T00:19:26;100196.78;;;12.74;81.04
6216;BME280;3141;49.234;9.326;2023-02-19T00:20:09;100200.44;;;12.73;80.77
6216;BME280;3141;49.234;9.326;2023-02-19T00:20:54;100207.31;;;12.58;80.92
6216;BME280;3141;49.234;9.326;2023-02-19T00:21:37;100202.47;;;12.53;80.84
6216;BME280;3141;49.234;9.326;2023-02-19T00:22:19;100205.09;;;12.53;81.23
6216;BME280;3141;49.234;9.326;2023-02-19T00:23:01;100206.69;;;12.64;81.23
6216;BME280;3141;49.234;9.326;2023-02-19T00:23:48;100210.34;;;12.63;81.34
6216;BME280;3141;49.234;9.326;2023-02-19T00:24:31;100204.50;;;12.59;81.00
6216;BME280;3141;49.234;9.326;2023-02-19T00:25:14;100205.44;;;12.50;81.50
6216;BME280;3141;49.234;9.326;2023-02-19T00:26:00;100197.09;;;12.45;81.98
6216;BME280;3141;49.234;9.326;2023-02-19T00:26:43;100191.88;;;12.36;82.29
6216;BME280;3141;49.234;9.326;2023-02-19T00:27:26;100195.34;;;12.54;82.00
6216;BME280;3141;49.234;9.326;2023-02-19T00:28:08;100197.34;;;12.60;81.82
6216;BME280;3141;49.234;9.326;2023-02-19T00:28:52;100187.91;;;12.57;81.05
6216;BME280;3141;49.234;9.326;2023-02-19T00:29:34;100191.09;;;12.61;81.17
6216;BME280;3141;49.234;9.326;2023-02-19T00:30:16;100192.22;;;12.58;80.93
6216;BME280;3141;49.234;9.326;2023-02-19T00:31:06;100191.16;;;12.51;81.37
6216;BME280;3141;49.234;9.326;2023-02-19T00:31:49;100185.06;;;12.51;81.17
6216;BME280;3141;49.234;9.326;2023-02-19T00:32:31;100174.69;;;12.40;81.74
6216;BME280;3141;49.234;9.326;2023-02-19T00:33:14;100181.94;;;12.55;81.08
6216;BME280;3141;49.234;9.326;2023-02-19T00:33:59;100175.16;;;12.61;81.29
6216;BME280;3141;49.234;9.326;2023-02-19T00:34:41;100180.84;;;12.66;80.60
6216;BME280;3141;49.234;9.326;2023-02-19T00:35:24;100173.97;;;12.55;81.23
6216;BME280;3141;49.234;9.326;2023-02-19T00:36:06;100172.34;;;12.62;80.90
6216;BME280;3141;49.234;9.326;2023-02-19T00:36:49;100172.19;;;12.64;81.24
6216;BME280;3141;49.234;9.326;2023-02-19T00:37:31;100172.59;;;12.77;80.50
6216;BME280;3141;49.234;9.326;2023-02-19T00:38:13;100173.19;;;12.63;80.42
6216;BME280;3141;49.234;9.326;2023-02-19T00:38:56;100166.78;;;12.48;81.44
6216;BME280;3141;49.234;9.326;2023-02-19T00:39:38;100168.09;;;12.44;81.39
6216;BME280;3141;49.234;9.326;2023-02-19T00:40:20;100164.25;;;12.64;80.96
6216;BME280;3141;49.234;9.326;2023-02-19T00:41:04;100161.63;;;12.72;80.43
6216;BME280;3141;49.234;9.326;2023-02-19T00:42:00;100164.94;;;12.40;81.16
6216;BME280;3141;49.234;9.326;2023-02-19T00:42:42;100173.13;;;12.55;80.98
6216;BME280;3141;49.234;9.326;2023-02-19T00:43:24;100165.97;;;12.73;80.71
6216;BME280;3141;49.234;9.326;2023-02-19T00:44:07;100157.47;;;12.69;80.57
6216;BME280;3141;49.234;9.326;2023-02-19T00:44:49;100149.47;;;12.61;80.63
6216;BME280;3141;49.234;9.326;2023-02-19T00:45:32;100140.50;;;12.54;81.31
6216;BME280;3141;49.234;9.326;2023-02-19T00:46:17;100137.72;;;12.64;80.96
6216;BME280;3141;49.234;9.326;2023-02-19T00:47:00;100130.66;;;12.47;81.01
6216;BME280;3141;49.234;9.326;2023-02-19T00:47:42;100137.59;;;12.48;81.36
6216;BME280;3141;49.234;9.326;2023-02-19T00:48:25;100150.84;;;12.40;81.25
6216;BME280;3141;49.234;9.326;2023-02-19T00:49:09;100165.50;;;12.52;81.31
6216;BME280;3141;49.234;9.326;2023-02-19T00:49:54;100165.97;;;12.47;81.45
6216;BME280;3141;49.234;9.326;2023-02-19T00:50:36;100170.19;;;12.58;81.29
6216;BME280;3141;49.234;9.326;2023-02-19T00:51:21;100168.03;;;12.36;82.30
6216;BME280;3141;49.234;9.326;2023-02-19T00:52:03;100159.19;;;12.27;82.61
6216;BME280;3141;49.234;9.326;2023-02-19T00:52:46;100151.53;;;12.24;82.97
6216;BME280;3141;49.234;9.326;2023-02-19T00:53:28;100145.41;;;12.24;82.90
6216;BME280;3141;49.234;9.326;2023-02-19T00:54:10;100146.78;;;12.28;83.14
6216;BME280;3141;49.234;9.326;2023-02-19T00:54:53;100145.47;;;12.32;82.83
6216;BME280;3141;49.234;9.326;2023-02-19T00:55:36;100146.13;;;12.34;83.11
6216;BME280;3141;49.234;9.326;2023-02-19T00:56:18;100151.03;;;12.21;82.87
6216;BME280;3141;49.234;9.326;2023-02-19T00:57:01;100148.59;;;12.10;83.63
6216;BME280;3141;49.234;9.326;2023-02-19T00:57:43;100146.63;;;12.12;83.76
6216;BME280;3141;49.234;9.326;2023-02-19T00:58:25;100148.06;;;12.24;83.63
6216;BME280;3141;49.234;9.326;2023-02-19T00:59:08;100148.41;;;12.03;84.50
6216;BME280;3141;49.234;9.326;2023-02-19T00:59:51;100159.34;;;12.26;83.65
6216;BME280;3141;49.234;9.326;2023-02-19T01:00:33;100156.53;;;12.53;82.30
6216;BME280;3141;49.234;9.326;2023-02-19T01:01:15;100151.34;;;12.18;83.15
6216;BME280;3141;49.234;9.326;2023-02-19T01:01:58;100153.84;;;12.19;83.23
6216;BME280;3141;49.234;9.326;2023-02-19T01:02:40;100156.00;;;12.24;83.64
6216;BME280;3141;49.234;9.326;2023-02-19T01:03:23;100161.72;;;12.11;83.62
6216;BME280;3141;49.234;9.326;2023-02-19T01:04:05;100153.34;;;12.24;83.75
6216;BME280;3141;49.234;9.326;2023-02-19T01:04:48;100156.25;;;12.30;83.50
6216;BME280;3141;49.234;9.326;2023-02-19T01:05:30;100152.06;;;12.28;83.14
6216;BME280;3141;49.234;9.326;2023-02-19T01:06:14;100156.63;;;12.35;83.12
6216;BME280;3141;49.234;9.326;2023-02-19T01:06:57;100152.06;;;12.28;83.32
6216;BME280;3141;49.234;9.326;2023-02-19T01:07:39;100154.88;;;12.26;83.34
6216;BME280;3141;49.234;9.326;2023-02-19T01:08:21;100157.97;;;12.22;84.00
6216;BME280;3141;49.234;9.326;2023-02-19T01:09:04;100159.59;;;12.15;84.10
6216;BME280;3141;49.234;9.326;2023-02-19T01:09:46;100160.63;;;12.22;84.34
6216;BME280;3141;49.234;9.326;2023-02-19T01:10:29;100160.91;;;12.36;83.61
6216;BME280;3141;49.234;9.326;2023-02-19T01:11:12;100152.13;;;12.36;83.50
6216;BME280;3141;49.234;9.326;2023-02-19T01:11:54;100160.16;;;12.44;82.92
6216;BME280;3141;49.234;9.326;2023-02-19T01:12:36;100156.13;;;12.40;83.13
6216;BME280;3141;49.234;9.326;2023-02-19T01:13:19;100162.19;;;12.32;83.26
6216;BME280;3141;49.234;9.326;2023-02-19T01:14:01;100160.06;;;12.10;84.42
6216;BME280;3141;49.234;9.326;2023-02-19T01:14:44;100153.34;;;12.24;84.47
6216;BME280;3141;49.234;9.326;2023-02-19T01:15:26;100150.59;;;12.08;84.91
6216;BME280;3141;49.234;9.326;2023-02-19T01:16:17;100159.88;;;12.29;84.06
6216;BME280;3141;49.234;9.326;2023-02-19T01:17:00;100163.00;;;12.07;84.48
6216;BME280;3141;49.234;9.326;2023-02-19T01:17:43;100160.88;;;12.28;84.44
6216;BME280;3141;49.234;9.326;2023-02-19T01:18:25;100165.69;;;12.33;84.18
6216;BME280;3141;49.234;9.326;2023-02-19T01:19:07;100165.88;;;12.14;84.42
6216;BME280;3141;49.234;9.326;2023-02-19T01:19:50;100162.50;;;12.04;84.94
6216;BME280;3141;49.234;9.326;2023-02-19T01:20:32;100160.84;;;12.03;85.77
6216;BME280;3141;49.234;9.326;2023-02-19T01:21:20;100160.69;;;12.04;85.97
6216;BME280;3141;49.234;9.326;2023-02-19T01:22:03;100157.03;;;12.05;86.33
6216;BME280;3141;49.234;9.326;2023-02-19T01:22:45;100144.09;;;11.85;87.04
6216;BME280;3141;49.234;9.326;2023-02-19T01:23:28;100152.94;;;12.11;86.43
6216;BME280;3141;49.234;9.326;2023-02-19T01:24:10;100150.34;;;12.19;85.84
6216;BME280;3141;49.234;9.326;2023-02-19T01:24:52;100155.41;;;12.30;85.39
6216;BME280;3141;49.234;9.326;2023-02-19T01:25:40;100156.00;;;12.24;85.08
6216;BME280;3141;49.234;9.326;2023-02-19T01:26:25;100152.38;;;12.25;85.06
6216;BME280;3141;49.234;9.326;2023-02-19T01:27:08;100150.09;;;12.30;85.06
6216;BME280;3141;49.234;9.326;2023-02-19T01:27:50;100149.63;;;12.34;84.80
6216;BME280;3141;49.234;9.326;2023-02-19T01:28:33;100150.03;;;12.22;85.12
6216;BME280;3141;49.234;9.326;2023-02-19T01:29:16;100139.06;;;12.17;85.10
6216;BME280;3141;49.234;9.326;2023-02-19T01:29:58;100140.09;;;12.24;85.33
6216;BME280;3141;49.234;9.326;2023-02-19T01:30:40;100142.34;;;12.11;85.71
6216;BME280;3141;49.234;9.326;2023-02-19T01:31:23;100129.69;;;12.05;86.35
6216;BME280;3141;49.234;9.326;2023-02-19T01:32:06;100133.94;;;11.98;86.91
6216;BME280;3141;49.234;9.326;2023-02-19T01:32:48;100137.00;;;12.03;86.99
6216;BME280;3141;49.234;9.326;2023-02-19T01:33:31;100129.41;;;12.08;86.99
6216;BME280;3141;49.234;9.326;2023-02-19T01:34:14;100134.66;;;12.25;86.15
6216;BME280;3141;49.234;9.326;2023-02-19T01:34:56;100135.16;;;12.29;86.08
6216;BME280;3141;49.234;9.326;2023-02-19T01:35:38;100129.22;;;12.27;86.11
6216;BME280;3141;49.234;9.326;2023-02-19T01:36:21;100134.06;;;12.14;86.63
6216;BME280;3141;49.234;9.326;2023-02-19T01:37:03;100127.00;;;11.97;86.57
6216;BME280;3141;49.234;9.326;2023-02-19T01:37:46;100137.91;;;11.94;88.11
6216;BME280;3141;49.234;9.326;2023-02-19T01:38:29;100135.69;;;11.89;87.96
6216;BME280;3141;49.234;9.326;2023-02-19T01:39:11;100134.78;;;11.98;88.10
6216;BME280;3141;49.234;9.326;2023-02-19T01:39:53;100140.41;;;11.95;88.37
6216;BME280;3141;49.234;9.326;2023-02-19T01:40:36;100137.44;;;11.98;88.41
6216;BME280;3141;49.234;9.326;2023-02-19T01:41:21;100132.91;;;11.91;88.56
6216;BME280;3141;49.234;9.326;2023-02-19T01:42:05;100129.59;;;11.89;88.92
6216;BME280;3141;49.234;9.326;2023-02-19T01:42:52;100126.63;;;11.92;88.45
6216;BME280;3141;49.234;9.326;2023-02-19T01:43:55;100126.25;;;11.87;89.21
6216;BME280;3141;49.234;9.326;2023-02-19T01:45:26;100131.34;;;11.80;88.61
6216;BME280;3141;49.234;9.326;2023-02-19T01:46:08;100127.09;;;11.87;89.14
6216;BME280;3141;49.234;9.326;2023-02-19T01:46:51;100130.47;;;11.97;88.36
6216;BME280;3141;49.234;9.326;2023-02-19T01:47:34;100145.84;;;11.94;88.17
6216;BME280;3141;49.234;9.326;2023-02-19T01:48:21;100131.19;;;11.82;88.59
6216;BME280;3141;49.234;9.326;2023-02-19T01:49:15;100140.25;;;11.79;88.85
6216;BME280;3141;49.234;9.326;2023-02-19T01:49:58;100137.91;;;11.76;89.42
6216;BME280;3141;49.234;9.326;2023-02-19T01:50:46;100127.69;;;11.81;89.73
6216;BME280;3141;49.234;9.326;2023-02-19T01:51:31;100134.94;;;11.79;89.17
6216;BME280;3141;49.234;9.326;2023-02-19T01:52:25;100137.44;;;11.81;89.19
6216;BME280;3141;49.234;9.326;2023-02-19T01:53:11;100136.69;;;11.88;89.08
6216;BME280;3141;49.234;9.326;2023-02-19T01:53:56;100136.22;;;11.93;88.40
6216;BME280;3141;49.234;9.326;2023-02-19T01:54:42;100134.03;;;11.88;88.98
6216;BME280;3141;49.234;9.326;2023-02-19T01:55:25;100127.84;;;11.80;88.92
6216;BME280;3141;49.234;9.326;2023-02-19T01:56:08;100137.22;;;11.92;88.65
6216;BME280;3141;49.234;9.326;2023-02-19T01:56:51;100127.84;;;11.97;88.41
6216;BME280;3141;49.234;9.326;2023-02-19T01:57:45;100131.38;;;11.88;88.51
6216;BME280;3141;49.234;9.326;2023-02-19T01:58:30;100130.19;;;11.83;88.76
6216;BME280;3141;49.234;9.326;2023-02-19T01:59:15;100131.72;;;11.85;89.54
6216;BME280;3141;49.234;9.326;2023-02-19T02:00:03;100129.81;;;11.78;89.56
6216;BME280;3141;49.234;9.326;2023-02-19T02:00:48;100127.38;;;11.84;89.36
6216;BME280;3141;49.234;9.326;2023-02-19T02:01:33;100130.19;;;11.83;89.68
6216;BME280;3141;49.234;9.326;2023-02-19T02:02:15;100126.72;;;11.65;90.07
6216;BME280;3141;49.234;9.326;2023-02-19T02:02:58;100125.66;;;11.75;89.39
6216;BME280;3141;49.234;9.326;2023-02-19T02:03:44;100124.66;;;11.76;89.72
6216;BME280;3141;49.234;9.326;2023-02-19T02:04:29;100119.53;;;11.75;89.87
6216;BME280;3141;49.234;9.326;2023-02-19T02:05:33;100125.25;;;11.88;89.88
6216;BME280;3141;49.234;9.326;2023-02-19T02:06:20;100125.03;;;11.99;89.23
6216;BME280;3141;49.234;9.326;2023-02-19T02:07:04;100123.28;;;11.90;89.36
6216;BME280;3141;49.234;9.326;2023-02-19T02:08:07;100107.41;;;11.72;90.27
6216;BME280;3141;49.234;9.326;2023-02-19T02:09:08;100095.91;;;11.81;89.37
6216;BME280;3141;49.234;9.326;2023-02-19T02:10:09;100107.38;;;11.90;89.75
6216;BME280;3141;49.234;9.326;2023-02-19T02:11:01;100103.31;;;11.78;90.10
6216;BME280;3141;49.234;9.326;2023-02-19T02:11:47;100109.19;;;11.89;90.04
6216;BME280;3141;49.234;9.326;2023-02-19T02:12:30;100108.16;;;11.82;90.24
6216;BME280;3141;49.234;9.326;2023-02-19T02:13:12;100101.34;;;11.80;90.35
6216;BME280;3141;49.234;9.326;2023-02-19T02:13:55;100104.00;;;11.80;90.38
6216;BME280;3141;49.234;9.326;2023-02-19T02:14:41;100097.88;;;11.79;90.48
6216;BME280;3141;49.234;9.326;2023-02-19T02:15:35;100108.22;;;11.90;90.39
6216;BME280;3141;49.234;9.326;2023-02-19T02:16:24;100104.69;;;11.82;90.69
6216;BME280;3141;49.234;9.326;2023-02-19T02:17:30;100096.47;;;11.93;90.09
6216;BME280;3141;49.234;9.326;2023-02-19T02:18:27;100093.78;;;11.85;90.47
6216;BME280;3141;49.234;9.326;2023-02-19T02:21:29;100090.38;;;11.75;91.35
6216;BME280;3141;49.234;9.326;2023-02-19T02:22:20;100093.03;;;11.75;91.43
6216;BME280;3141;49.234;9.326;2023-02-19T02:23:15;100094.84;;;11.74;91.47
6216;BME280;3141;49.234;9.326;2023-02-19T02:24:11;100095.69;;;11.75;91.66
6216;BME280;3141;49.234;9.326;2023-02-19T02:25:58;100097.44;;;11.84;91.25
6216;BME280;3141;49.234;9.326;2023-02-19T02:26:43;100102.72;;;11.66;92.34
6216;BME280;3141;49.234;9.326;2023-02-19T02:27:38;100098.94;;;11.69;92.50
6216;BME280;3141;49.234;9.326;2023-02-19T02:30:16;100095.19;;;11.61;92.13
6216;BME280;3141;49.234;9.326;2023-02-19T02:31:07;100102.25;;;11.71;92.24
6216;BME280;3141;49.234;9.326;2023-02-19T02:33:46;100098.16;;;11.58;92.18
6216;BME280;3141;49.234;9.326;2023-02-19T02:34:35;100102.94;;;11.73;91.82
6216;BME280;3141;49.234;9.326;2023-02-19T02:35:28;100103.94;;;11.72;91.51
6216;BME280;3141;49.234;9.326;2023-02-19T02:36:17;100099.25;;;11.66;91.86
6216;BME280;3141;49.234;9.326;2023-02-19T02:37:00;100104.59;;;11.74;91.47
6216;BME280;3141;49.234;9.326;2023-02-19T02:37:44;100100.13;;;11.92;90.63
6216;BME280;3141;49.234;9.326;2023-02-19T02:38:30;100101.28;;;11.72;90.93
6216;BME280;3141;49.234;9.326;2023-02-19T02:39:19;100101.41;;;11.88;90.15
6216;BME280;3141;49.234;9.326;2023-02-19T02:40:04;100100.97;;;11.75;90.24
6216;BME280;3141;49.234;9.326;2023-02-19T02:40:46;100106.59;;;11.72;90.50
6216;BME280;3141;49.234;9.326;2023-02-19T02:41:31;100099.63;;;11.71;91.00
6216;BME280;3141;49.234;9.326;2023-02-19T02:42:13;100090.75;;;11.80;90.10
6216;BME280;3141;49.234;9.326;2023-02-19T02:43:11;100094.16;;;11.90;89.54
6216;BME280;3141;49.234;9.326;2023-02-19T02:43:53;100097.88;;;11.79;89.96
6216;BME280;3141;49.234;9.326;2023-02-19T02:44:36;100093.84;;;11.57;90.85
6216;BME280;3141;49.234;9.326;2023-02-19T02:46:22;100092.72;;;11.78;90.39
6216;BME280;3141;49.234;9.326;2023-02-19T02:47:08;100089.53;;;11.74;89.60
6216;BME280;3141;49.234;9.326;2023-02-19T02:48:17;100087.63;;;11.84;89.65
6216;BME280;3141;49.234;9.326;2023-02-19T02:49:09;100087.47;;;11.86;89.51
6216;BME280;3141;49.234;9.326;2023-02-19T02:49:55;100089.16;;;11.87;89.30
6216;BME280;3141;49.234;9.326;2023-02-19T02:51:01;100092.56;;;11.79;89.82
6216;BME280;3141;49.234;9.326;2023-02-19T02:51:49;100091.19;;;11.93;88.97
6216;BME280;3141;49.234;9.326;2023-02-19T02:52:35;100096.47;;;11.93;88.61
6216;BME280;3141;49.234;9.326;2023-02-19T02:53:47;100095.81;;;11.91;88.83
6216;BME280;3141;49.234;9.326;2023-02-19T02:54:51;100096.84;;;11.98;88.13
6216;BME280;3141;49.234;9.326;2023-02-19T02:55:54;100089.06;;;11.96;88.35
6216;BME280;3141;49.234;9.326;2023-02-19T02:56:38;100095.50;;;11.94;88.59
6216;BME280;3141;49.234;9.326;2023-02-19T02:57:22;100092.50;;;11.89;88.81
6216;BME280;3141;49.234;9.326;2023-02-19T02:58:06;100089.47;;;11.84;88.35
6216;BME280;3141;49.234;9.326;2023-02-19T02:58:49;100096.63;;;11.91;88.83
6216;BME280;3141;49.234;9.326;2023-02-19T02:59:36;100092.69;;;11.95;88.35
6216;BME280;3141;49.234;9.326;2023-02-19T03:00:22;100089.94;;;12.05;87.85
6216;BME280;3141;49.234;9.326;2023-02-19T03:01:11;100088.91;;;11.98;87.99
6216;BME280;3141;49.234;9.326;2023-02-19T03:02:17;100087.41;;;11.95;87.87
6216;BME280;3141;49.234;9.326;2023-02-19T03:03:02;100091.09;;;12.02;88.11
6216;BME280;3141;49.234;9.326;2023-02-19T03:03:47;100082.25;;;11.94;87.85
6216;BME280;3141;49.234;9.326;2023-02-19T03:06:05;100074.38;;;11.84;88.33
6216;BME280;3141;49.234;9.326;2023-02-19T03:06:49;100070.81;;;11.93;87.63
6216;BME280;3141;49.234;9.326;2023-02-19T03:07:38;100071.97;;;11.91;87.68
6216;BME280;3141;49.234;9.326;2023-02-19T03:08:27;100077.19;;;11.83;88.15
6216;BME280;3141;49.234;9.326;2023-02-19T03:09:14;100076.59;;;11.89;87.87
6216;BME280;3141;49.234;9.326;2023-02-19T03:09:58;100072.94;;;11.90;87.77
6216;BME280;3141;49.234;9.326;2023-02-19T03:10:51;100073.47;;;11.93;87.24
6216;BME280;3141;49.234;9.326;2023-02-19T03:11:37;100075.53;;;11.82;87.50
6216;BME280;3141;49.234;9.326;2023-02-19T03:12:40;100075.19;;;11.77;87.75
6216;BME280;3141;49.234;9.326;2023-02-19T03:13:46;100064.16;;;11.89;87.40
6216;BME280;3141;49.234;9.326;2023-02-19T03:14:54;100067.69;;;11.98;86.70
6216;BME280;3141;49.234;9.326;2023-02-19T03:16:01;100069.00;;;11.94;86.73
6216;BME280;3141;49.234;9.326;2023-02-19T03:17:12;100071.91;;;11.83;87.32
6216;BME280;3141;49.234;9.326;2023-02-19T03:18:18;100064.41;;;11.96;86.72
6216;BME280;3141;49.234;9.326;2023-02-19T03:19:20;100065.38;;;11.95;85.98
6216;BME280;3141;49.234;9.326;2023-02-19T03:20:08;100061.44;;;11.99;86.19
6216;BME280;3141;49.234;9.326;2023-02-19T03:20:55;100062.91;;;12.01;86.02
6216;BME280;3141;49.234;9.326;2023-02-19T03:21:40;100064.44;;;12.04;85.44
6216;BME280;3141;49.234;9.326;2023-02-19T03:22:28;100067.66;;;12.15;85.25
6216;BME280;3141;49.234;9.326;2023-02-19T03:23:13;100068.91;;;12.03;85.62
6216;BME280;3141;49.234;9.326;2023-02-19T03:23:58;100064.03;;;11.91;86.10
6216;BME280;3141;49.234;9.326;2023-02-19T03:25:06;100067.44;;;11.83;86.25
6216;BME280;3141;49.234;9.326;2023-02-19T03:26:10;100062.72;;;11.95;85.81
6216;BME280;3141;49.234;9.326;2023-02-19T03:26:55;100074.69;;;11.99;85.31
6216;BME280;3141;49.234;9.326;2023-02-19T03:27:40;100069.91;;;12.02;85.27
6216;BME280;3141;49.234;9.326;2023-02-19T03:28:26;100068.91;;;12.03;85.32
6216;BME280;3141;49.234;9.326;2023-02-19T03:29:46;100074.09;;;11.87;85.68
6216;BME280;3141;49.234;9.326;2023-02-19T03:30:33;100070.41;;;12.06;84.95
6216;BME280;3141;49.234;9.326;2023-02-19T03:31:18;100072.03;;;11.99;85.01
6216;BME280;3141;49.234;9.326;2023-02-19T03:32:07;100064.44;;;12.04;85.01
6216;BME280;3141;49.234;9.326;2023-02-19T03:32:54;100065.44;;;12.03;84.95
6216;BME280;3141;49.234;9.326;2023-02-19T03:33:40;100052.91;;;11.87;85.25
6216;BME280;3141;49.234;9.326;2023-02-19T03:34:48;100053.00;;;12.03;84.79
6216;BME280;3141;49.234;9.326;2023-02-19T03:36:00;100054.38;;;12.07;84.56
6216;BME280;3141;49.234;9.326;2023-02-19T03:36:49;100057.19;;;12.06;84.09
6216;BME280;3141;49.234;9.326;2023-02-19T03:37:38;100061.53;;;12.15;83.97
6216;BME280;3141;49.234;9.326;2023-02-19T03:38:27;100058.50;;;12.10;83.65
6216;BME280;3141;49.234;9.326;2023-02-19T03:39:14;100058.97;;;12.05;83.84
6216;BME280;3141;49.234;9.326;2023-02-19T03:39:58;100052.63;;;11.98;84.34
6216;BME280;3141;49.234;9.326;2023-02-19T03:41:08;100060.06;;;11.95;84.47
6216;BME280;3141;49.234;9.326;2023-02-19T03:43:36;100066.81;;;11.89;84.57
6216;BME280;3141;49.234;9.326;2023-02-19T03:44:37;100060.84;;;11.87;84.65
6216;BME280;3141;49.234;9.326;2023-02-19T03:46:08;100067.78;;;12.06;84.10
6216;BME280;3141;49.234;9.326;2023-02-19T03:46:58;100073.69;;;12.00;83.76
6216;BME280;3141;49.234;9.326;2023-02-19T03:47:50;100067.50;;;12.17;83.13
6216;BME280;3141;49.234;9.326;2023-02-19T03:48:40;100076.31;;;12.25;82.77
6216;BME280;3141;49.234;9.326;2023-02-19T03:49:47;100080.94;;;11.98;83.71
6216;BME280;3141;49.234;9.326;2023-02-19T03:50:48;100077.22;;;12.08;83.69
6216;BME280;3141;49.234;9.326;2023-02-19T03:51:44;100080.53;;;12.10;83.44
6216;BME280;3141;49.234;9.326;2023-02-19T03:53:46;100073.69;;;12.00;83.24
6216;BME280;3141;49.234;9.326;2023-02-19T03:54:37;100079.41;;;12.13;83.10
6216;BME280;3141;49.234;9.326;2023-02-19T03:55:39;100079.25;;;12.14;82.98
6216;BME280;3141;49.234;9.326;2023-02-19T03:56:32;100076.78;;;12.13;82.76
6216;BME280;3141;49.234;9.326;2023-02-19T03:57:27;100077.84;;;12.02;83.38
6216;BME280;3141;49.234;9.326;2023-02-19T03:59:32;100079.34;;;12.05;83.24
6216;BME280;3141;49.234;9.326;2023-02-19T04:00:29;100078.53;;;12.04;83.48
6216;BME280;3141;49.234;9.326;2023-02-19T04:01:25;100069.97;;;12.18;82.69
6216;BME280;3141;49.234;9.326;2023-02-19T04:02:13;100083.34;;;12.09;83.18
6216;BME280;3141;49.234;9.326;2023-02-19T04:03:07;100086.25;;;11.98;83.78
6216;BME280;3141;49.234;9.326;2023-02-19T04:04:44;100089.78;;;12.06;82.88
6216;BME280;3141;49.234;9.326;2023-02-19T04:05:32;100087.09;;;11.98;83.43
6216;BME280;3141;49.234;9.326;2023-02-19T04:06:22;100089.66;;;12.08;82.86
6216;BME280;3141;49.234;9.326;2023-02-19T04:07:06;100080.66;;;12.01;83.26
6216;BME280;3141;49.234;9.326;2023-02-19T04:07:52;100089.84;;;12.14;82.96
6216;BME280;3141;49.234;9.326;2023-02-19T04:08:35;100097.50;;;12.17;82.85
6216;BME280;3141;49.234;9.326;2023-02-19T04:09:22;100095.84;;;12.16;82.65
6216;BME280;3141;49.234;9.326;2023-02-19T04:10:06;100100.97;;;12.18;82.53
6216;BME280;3141;49.234;9.326;2023-02-19T04:10:51;100090.03;;;12.13;82.58
6216;BME280;3141;49.234;9.326;2023-02-19T04:11:36;100092.00;;;12.11;82.61
6216;BME280;3141;49.234;9.326;2023-02-19T04:12:19;100093.63;;;12.12;82.50
6216;BME280;3141;49.234;9.326;2023-02-19T04:13:11;100088.84;;;12.15;82.83
6216;BME280;3141;49.234;9.326;2023-02-19T04:14:01;100088.25;;;12.21;82.77
6216;BME280;3141;49.234;9.326;2023-02-19T04:14:51;100086.81;;;12.27;82.12
6216;BME280;3141;49.234;9.326;2023-02-19T04:15:35;100092.09;;;12.27;81.88
6216;BME280;3141;49.234;9.326;2023-02-19T04:16:24;100092.00;;;12.11;82.69
6216;BME280;3141;49.234;9.326;2023-02-19T04:17:14;100082.75;;;12.15;82.54
6216;BME280;3141;49.234;9.326;2023-02-19T04:18:11;100089.78;;;12.06;82.73
6216;BME280;3141;49.234;9.326;2023-02-19T04:19:02;100088.97;;;12.06;82.93
6216;BME280;3141;49.234;9.326;2023-02-19T04:19:48;100094.69;;;12.19;82.47
6216;BME280;3141;49.234;9.326;2023-02-19T04:20:36;100088.78;;;12.25;81.93
6216;BME280;3141;49.234;9.326;2023-02-19T04:21:21;100093.91;;;12.26;82.11
6216;BME280;3141;49.234;9.326;2023-02-19T04:22:06;100092.88;;;12.19;81.94
6216;BME280;3141;49.234;9.326;2023-02-19T04:22:50;100106.13;;;12.19;82.17
6216;BME280;3141;49.234;9.326;2023-02-19T04:23:39;100104.50;;;12.26;82.02
6216;BME280;3141;49.234;9.326;2023-02-19T04:24:29;100094.69;;;12.19;82.13
6216;BME280;3141;49.234;9.326;2023-02-19T04:25:13;100093.44;;;12.05;82.79
6216;BME280;3141;49.234;9.326;2023-02-19T04:25:58;100106.84;;;12.04;83.07
6216;BME280;3141;49.234;9.326;2023-02-19T04:26:41;100099.28;;;11.91;83.25
6216;BME280;3141;49.234;9.326;2023-02-19T04:27:25;100102.13;;;11.98;83.72
6216;BME280;3141;49.234;9.326;2023-02-19T04:28:08;100109.66;;;12.02;83.25
6216;BME280;3141;49.234;9.326;2023-02-19T04:28:50;100099.56;;;12.06;82.80